Strona główna
METAR-TAF:

METAR-TAF

Lotnisko :

Otjiwarongo, Namibia

Szerokość geograficzna: 20-25-50S, Długość geograficzna: 16-39-45E, wysokość: 1475 m

Aktualna obserwacja pogody

Raport powstał 41 minut temu, godzina 18:00 UTC
Wiatr 4 kt od wschód
Temperatura 22°C
Wilgotność 17%
Ciśnienie 1025 hPa

METAR: FYOW 211800Z AUTO 09004KT //// // ////// 22/M04 Q1025

czas: 19:41 (18:41 UTC)


TAF: brakujący

Obserwacja i prognoza pogody dla ponad 4000 lotnisk (raport METAR i TAF).

Dostępne stacje oznaczono żółtymi i czerwonymi punktami na mapie.

Najedź kursorem aby zobaczyć nazwę stacji.

Kliknij aby zobaczyć obserwacje i prognozy pogody.

Aby zmienić mapę: kliknij na zielony przycisk z czarnym krzyżykiem, aby powiększyć; na zielony przycisk z myślnikiem, aby pomniejszyć; na zielone strzałki, aby przejść do map sąsiednich.


METAR-TAF: